Time;durP1;ratioP1;P1;durP2;ratioP2;P2;SDS_P1;SDS_P2;PMS_P1;PMS_P2;Temp;Humidity;BMP_temperature;BMP_pressure;BME280_temperature;BME280_humidity;BME280_pressure;Samples;Min_cycle;Max_cycle;Signal;HPM_P1;HPM_P2
2023/12/19 00:02:27;;;;;;;20.00;13.57;;;;;;;;;;5037382;28;20975;-61
2023/12/19 00:04:56;;;;;;;20.53;13.50;;;;;;;;;;5037207;28;20496;-61
2023/12/19 00:07:25;;;;;;;21.97;14.07;;;;;;;;;;5037373;28;20442;-61
2023/12/19 00:09:53;;;;;;;26.53;14.33;;;;;;;;;;5037740;28;20446;-60
2023/12/19 00:12:21;;;;;;;22.87;14.50;;;;;;;;;;5036604;28;20526;-60
2023/12/19 00:14:49;;;;;;;30.33;17.50;;;;;;;;;;5033198;28;20333;-61
2023/12/19 00:17:17;;;;;;;34.03;19.13;;;;;;;;;;5037495;28;20438;-61
2023/12/19 00:19:46;;;;;;;36.40;23.63;;;;;;;;;;5037056;28;20482;-61
2023/12/19 00:22:15;;;;;;;33.87;22.07;;;;;;;;;;5037167;28;20474;-61
2023/12/19 00:24:44;;;;;;;35.93;22.43;;;;;;;;;;5036996;28;20462;-62
2023/12/19 00:27:12;;;;;;;44.20;24.50;;;;;;;;;;5037615;28;20477;-61
2023/12/19 00:29:40;;;;;;;46.53;26.40;;;;;;;;;;5036995;28;20450;-61
2023/12/19 00:32:08;;;;;;;47.70;26.90;;;;;;;;;;5037195;28;20450;-61
2023/12/19 00:34:36;;;;;;;51.37;27.80;;;;;;;;;;5037057;28;20470;-62
2023/12/19 00:37:05;;;;;;;57.00;27.20;;;;;;;;;;5037266;28;20885;-62
2023/12/19 00:39:36;;;;;;;49.83;27.73;;;;;;;;;;5037199;28;20442;-63
2023/12/19 00:42:04;;;;;;;43.90;26.30;;;;;;;;;;5036620;28;20988;-63
2023/12/19 00:44:36;;;;;;;40.50;23.13;;;;;;;;;;5036979;28;20472;-63
2023/12/19 00:47:04;;;;;;;54.70;27.10;;;;;;;;;;5037362;28;20442;-63
2023/12/19 00:49:32;;;;;;;49.20;25.80;;;;;;;;;;5037196;28;20447;-63
2023/12/19 00:52:01;;;;;;;45.93;27.33;;;;;;;;;;5036729;28;20453;-63
2023/12/19 00:54:29;;;;;;;48.00;26.90;;;;;;;;;;5036872;28;20553;-63
2023/12/19 00:56:59;;;;;;;48.33;26.27;;;;;;;;;;5037027;28;20450;-63
2023/12/19 00:59:27;;;;;;;47.30;27.23;;;;;;;;;;5036911;28;20446;-63
2023/12/19 01:01:57;;;;;;;47.13;28.07;;;;;;;;;;5036936;28;20438;-63
2023/12/19 01:04:25;;;;;;;43.13;26.80;;;;;;;;;;5037042;28;20458;-63
2023/12/19 01:06:53;;;;;;;48.43;28.20;;;;;;;;;;5036734;28;20470;-63
2023/12/19 01:09:21;;;;;;;48.43;27.00;;;;;;;;;;5037026;28;20447;-63
2023/12/19 01:11:50;;;;;;;51.90;27.73;;;;;;;;;;5036665;28;20439;-63
2023/12/19 01:14:19;;;;;;;49.20;27.17;;;;;;;;;;5036371;28;20462;-63
2023/12/19 01:16:47;;;;;;;46.00;26.07;;;;;;;;;;5036657;28;20442;-63
2023/12/19 01:19:15;;;;;;;50.23;27.47;;;;;;;;;;5028533;28;20449;-63
2023/12/19 01:21:44;;;;;;;53.87;28.43;;;;;;;;;;5031290;28;20482;-63
2023/12/19 01:24:12;;;;;;;44.00;25.90;;;;;;;;;;5040869;28;20458;-63
2023/12/19 01:26:40;;;;;;;56.57;28.33;;;;;;;;;;5040562;28;20446;-63
2023/12/19 01:29:08;;;;;;;46.70;27.83;;;;;;;;;;5040570;28;20438;-63
2023/12/19 01:31:38;;;;;;;51.60;28.83;;;;;;;;;;5040174;28;20435;-63
2023/12/19 01:34:06;;;;;;;52.77;28.43;;;;;;;;;;5040924;28;20461;-63
2023/12/19 01:36:35;;;;;;;52.57;28.17;;;;;;;;;;5040471;28;20446;-63
2023/12/19 01:39:03;;;;;;;53.30;27.73;;;;;;;;;;5040343;28;20438;-63
2023/12/19 01:41:31;;;;;;;48.10;26.40;;;;;;;;;;5040379;28;20478;-63
2023/12/19 01:43:59;;;;;;;42.57;23.97;;;;;;;;;;5039907;28;20465;-63
2023/12/19 01:46:28;;;;;;;45.93;22.80;;;;;;;;;;5040427;28;20442;-61
2023/12/19 01:49:00;;;;;;;44.27;25.23;;;;;;;;;;5039900;28;20912;-61
2023/12/19 01:51:29;;;;;;;51.43;24.07;;;;;;;;;;5040091;28;20445;-60
2023/12/19 01:53:57;;;;;;;50.53;26.00;;;;;;;;;;5039629;28;20489;-60
2023/12/19 01:56:25;;;;;;;52.33;23.30;;;;;;;;;;5039949;28;20810;-60
2023/12/19 01:58:54;;;;;;;52.87;26.03;;;;;;;;;;5039964;28;20442;-60
2023/12/19 02:01:22;;;;;;;51.00;24.77;;;;;;;;;;5039415;28;20508;-60
2023/12/19 02:03:50;;;;;;;48.80;24.33;;;;;;;;;;5039756;28;20984;-61
2023/12/19 02:06:20;;;;;;;38.33;19.27;;;;;;;;;;5039131;28;20486;-60
2023/12/19 02:08:48;;;;;;;34.13;20.27;;;;;;;;;;5038484;28;20604;-61
2023/12/19 02:11:17;;;;;;;29.90;18.03;;;;;;;;;;5039622;28;20440;-61
2023/12/19 02:13:45;;;;;;;29.00;17.97;;;;;;;;;;5039628;28;20467;-61
2023/12/19 02:16:14;;;;;;;31.20;18.50;;;;;;;;;;5039320;28;20443;-61
2023/12/19 02:18:43;;;;;;;33.90;17.63;;;;;;;;;;5039733;28;20495;-60
2023/12/19 02:21:11;;;;;;;31.43;17.93;;;;;;;;;;5038516;28;20479;-61
2023/12/19 02:23:41;;;;;;;26.27;15.53;;;;;;;;;;5039654;28;20466;-61
2023/12/19 02:26:09;;;;;;;28.53;17.90;;;;;;;;;;5039472;28;20444;-61
2023/12/19 02:28:37;;;;;;;30.33;17.17;;;;;;;;;;5039783;28;20452;-60
2023/12/19 02:31:05;;;;;;;31.30;18.47;;;;;;;;;;5039087;28;20438;-60
2023/12/19 02:33:33;;;;;;;35.03;16.90;;;;;;;;;;5039240;28;20463;-62
2023/12/19 02:36:02;;;;;;;28.63;16.70;;;;;;;;;;5039410;28;20450;-63
2023/12/19 02:38:30;;;;;;;32.13;19.17;;;;;;;;;;5039112;28;20957;-62
2023/12/19 02:40:59;;;;;;;25.57;15.57;;;;;;;;;;5039098;28;20474;-62
2023/12/19 02:43:27;;;;;;;29.93;18.40;;;;;;;;;;5039110;28;20462;-62
2023/12/19 02:45:55;;;;;;;32.87;16.97;;;;;;;;;;5039154;28;20458;-61
2023/12/19 02:48:24;;;;;;;27.07;16.23;;;;;;;;;;5030612;28;20442;-60
2023/12/19 02:50:52;;;;;;;31.80;17.30;;;;;;;;;;5038905;28;20468;-61
2023/12/19 02:53:20;;;;;;;28.93;17.20;;;;;;;;;;5039019;28;20472;-62
2023/12/19 02:55:49;;;;;;;29.80;18.97;;;;;;;;;;5038817;28;20447;-62
2023/12/19 02:58:18;;;;;;;35.43;18.00;;;;;;;;;;5039167;28;20456;-60
2023/12/19 03:00:46;;;;;;;29.83;19.00;;;;;;;;;;5038211;28;20447;-62
2023/12/19 03:03:15;;;;;;;35.10;18.50;;;;;;;;;;5038789;28;20514;-62
2023/12/19 03:06:00;;;;;;;28.43;17.43;;;;;;;;;;5036000;28;21074;-61
2023/12/19 03:08:30;;;;;;;35.30;17.97;;;;;;;;;;5038272;28;20480;-61
2023/12/19 03:10:59;;;;;;;30.07;16.73;;;;;;;;;;5038392;28;20806;-63
2023/12/19 03:13:28;;;;;;;30.47;17.97;;;;;;;;;;5038322;28;20968;-60
2023/12/19 03:15:57;;;;;;;33.83;18.23;;;;;;;;;;5038536;28;20964;-61
2023/12/19 03:18:25;;;;;;;28.70;17.23;;;;;;;;;;5038391;28;20445;-60
2023/12/19 03:20:54;;;;;;;30.57;18.13;;;;;;;;;;5029395;28;20533;-61
2023/12/19 03:23:22;;;;;;;30.13;17.27;;;;;;;;;;5038120;28;20992;-60
2023/12/19 03:25:50;;;;;;;27.43;18.47;;;;;;;;;;5038573;28;20449;-61
2023/12/19 03:28:18;;;;;;;31.93;17.47;;;;;;;;;;5038314;28;20951;-60
2023/12/19 03:30:50;;;;;;;31.43;16.40;;;;;;;;;;5037855;28;20961;-61
2023/12/19 03:33:19;;;;;;;36.13;18.13;;;;;;;;;;5038011;28;20470;-61
2023/12/19 03:35:48;;;;;;;34.73;19.20;;;;;;;;;;5038446;28;20538;-60
2023/12/19 03:38:16;;;;;;;30.43;17.73;;;;;;;;;;5038052;28;20438;-61
2023/12/19 03:40:44;;;;;;;30.47;16.90;;;;;;;;;;5037744;28;20794;-60
2023/12/19 03:43:12;;;;;;;31.40;16.47;;;;;;;;;;5036446;28;20483;-60
2023/12/19 03:45:41;;;;;;;30.93;18.90;;;;;;;;;;5037839;28;20454;-61
2023/12/19 03:48:11;;;;;;;30.93;17.30;;;;;;;;;;5038223;28;20442;-60
2023/12/19 03:50:40;;;;;;;32.93;16.80;;;;;;;;;;5037281;28;20440;-60
2023/12/19 03:53:08;;;;;;;32.50;18.47;;;;;;;;;;5037909;28;20464;-62
2023/12/19 03:55:36;;;;;;;34.23;17.70;;;;;;;;;;5037452;28;20449;-62
2023/12/19 03:58:04;;;;;;;33.17;19.00;;;;;;;;;;5037293;28;20830;-62
2023/12/19 04:00:32;;;;;;;33.07;18.83;;;;;;;;;;5037387;28;20443;-62
2023/12/19 04:03:01;;;;;;;31.90;15.77;;;;;;;;;;5036750;28;20840;-61
2023/12/19 04:05:30;;;;;;;31.37;16.73;;;;;;;;;;5037622;28;20474;-63
2023/12/19 04:07:59;;;;;;;30.07;16.70;;;;;;;;;;5037588;28;20442;-60
2023/12/19 04:10:27;;;;;;;33.20;16.70;;;;;;;;;;5037667;28;20437;-60
2023/12/19 04:12:54;;;;;;;29.47;18.40;;;;;;;;;;5037213;28;20438;-61
2023/12/19 04:15:23;;;;;;;30.53;17.10;;;;;;;;;;5037092;28;20520;-61
2023/12/19 04:17:52;;;;;;;38.20;18.67;;;;;;;;;;5037468;28;20446;-61
2023/12/19 04:20:20;;;;;;;34.70;17.30;;;;;;;;;;5037361;28;20533;-61
2023/12/19 04:22:49;;;;;;;34.33;17.97;;;;;;;;;;5037063;28;20484;-60
2023/12/19 04:25:17;;;;;;;31.37;18.10;;;;;;;;;;5037646;28;20899;-61
2023/12/19 04:27:46;;;;;;;32.97;17.73;;;;;;;;;;5037305;28;20453;-62
2023/12/19 04:30:14;;;;;;;36.63;19.73;;;;;;;;;;5037215;28;20781;-60
2023/12/19 04:32:42;;;;;;;29.97;17.70;;;;;;;;;;5037048;28;20438;-61
2023/12/19 04:35:11;;;;;;;33.07;17.80;;;;;;;;;;5037379;28;20437;-61
2023/12/19 04:37:39;;;;;;;35.40;19.07;;;;;;;;;;5037299;28;21008;-60
2023/12/19 04:40:09;;;;;;;33.47;18.70;;;;;;;;;;5037193;28;20521;-61
2023/12/19 04:42:37;;;;;;;33.77;18.40;;;;;;;;;;5037042;28;20489;-61
2023/12/19 04:45:06;;;;;;;35.47;19.00;;;;;;;;;;5036822;28;20839;-61
2023/12/19 04:47:34;;;;;;;34.63;19.00;;;;;;;;;;5036973;28;20813;-61
2023/12/19 04:50:03;;;;;;;36.20;19.13;;;;;;;;;;5028728;28;20469;-60
2023/12/19 04:52:31;;;;;;;35.37;20.23;;;;;;;;;;5036589;28;20454;-60
2023/12/19 04:54:59;;;;;;;36.33;19.20;;;;;;;;;;5038390;28;20466;-60
2023/12/19 04:57:29;;;;;;;33.00;18.93;;;;;;;;;;5041161;28;20506;-61
2023/12/19 04:59:57;;;;;;;37.23;19.33;;;;;;;;;;5041109;28;20444;-60
2023/12/19 05:02:25;;;;;;;37.33;20.03;;;;;;;;;;5040803;28;20504;-61
2023/12/19 05:04:53;;;;;;;38.23;18.60;;;;;;;;;;5040773;28;20469;-60
2023/12/19 05:07:23;;;;;;;42.77;19.80;;;;;;;;;;5039740;28;20430;-62
2023/12/19 05:09:51;;;;;;;45.37;21.30;;;;;;;;;;5039572;28;20960;-60
2023/12/19 05:12:21;;;;;;;33.87;19.67;;;;;;;;;;5039224;28;20511;-61
2023/12/19 05:14:51;;;;;;;39.37;20.33;;;;;;;;;;5039398;28;20465;-61
2023/12/19 05:17:19;;;;;;;36.07;20.17;;;;;;;;;;5039454;28;20446;-61
2023/12/19 05:19:47;;;;;;;40.13;20.27;;;;;;;;;;5039127;28;20470;-60
2023/12/19 05:22:22;;;;;;;44.13;18.30;;;;;;;;;;5036435;28;20482;-61
2023/12/19 05:24:50;;;;;;;41.00;19.27;;;;;;;;;;5039438;28;20466;-62
2023/12/19 05:27:19;;;;;;;35.27;20.37;;;;;;;;;;5039261;28;20447;-62
2023/12/19 05:29:47;;;;;;;34.80;19.03;;;;;;;;;;5039323;28;20530;-62
2023/12/19 05:32:16;;;;;;;43.93;21.50;;;;;;;;;;5039350;28;20509;-62
2023/12/19 05:34:45;;;;;;;44.07;19.73;;;;;;;;;;5038791;28;20845;-62
2023/12/19 05:37:13;;;;;;;54.57;20.63;;;;;;;;;;5039195;28;20442;-60
2023/12/19 05:39:42;;;;;;;38.07;19.53;;;;;;;;;;5038922;28;20493;-62
2023/12/19 05:42:10;;;;;;;45.37;19.77;;;;;;;;;;5039323;28;20444;-62
2023/12/19 05:44:38;;;;;;;33.10;19.23;;;;;;;;;;5038001;28;20993;-62
2023/12/19 05:47:06;;;;;;;36.97;19.23;;;;;;;;;;5038998;28;20957;-60
2023/12/19 05:49:36;;;;;;;43.43;21.87;;;;;;;;;;5038956;28;20453;-62
2023/12/19 05:52:04;;;;;;;34.13;18.73;;;;;;;;;;5039215;28;20458;-60
2023/12/19 05:54:33;;;;;;;33.93;19.53;;;;;;;;;;5038356;28;20455;-60
2023/12/19 05:57:01;;;;;;;38.80;21.10;;;;;;;;;;5038764;28;20511;-60
2023/12/19 05:59:29;;;;;;;31.63;18.27;;;;;;;;;;5038771;28;20569;-60
2023/12/19 06:01:57;;;;;;;42.00;21.50;;;;;;;;;;5039228;28;20473;-60
2023/12/19 06:04:25;;;;;;;39.07;20.63;;;;;;;;;;5038229;28;20537;-63
2023/12/19 06:07:01;;;;;;;40.53;21.73;;;;;;;;;;4993598;28;1307054;-63
2023/12/19 06:09:29;;;;;;;42.10;20.90;;;;;;;;;;5039490;28;20210;-60
2023/12/19 06:11:57;;;;;;;34.13;18.93;;;;;;;;;;5039775;28;20967;-60
2023/12/19 06:14:25;;;;;;;43.83;19.50;;;;;;;;;;5035339;28;20458;-60
2023/12/19 06:16:54;;;;;;;36.30;19.03;;;;;;;;;;5039428;28;21043;-60
2023/12/19 06:19:22;;;;;;;39.73;19.63;;;;;;;;;;5039613;28;20925;-61
2023/12/19 06:21:50;;;;;;;34.77;17.37;;;;;;;;;;5036162;28;20474;-61
2023/12/19 06:24:20;;;;;;;34.87;19.30;;;;;;;;;;5039330;28;20483;-60
2023/12/19 06:26:48;;;;;;;36.97;18.73;;;;;;;;;;5039420;28;20450;-61
2023/12/19 06:29:17;;;;;;;34.80;18.80;;;;;;;;;;5038914;28;20955;-61
2023/12/19 06:31:45;;;;;;;36.77;17.97;;;;;;;;;;5039385;28;20465;-61
2023/12/19 06:34:13;;;;;;;29.93;17.40;;;;;;;;;;5039268;28;20545;-61
2023/12/19 06:36:44;;;;;;;35.07;17.53;;;;;;;;;;5039289;28;20445;-61
2023/12/19 06:39:12;;;;;;;28.17;17.37;;;;;;;;;;5039379;28;20454;-61
2023/12/19 06:41:42;;;;;;;33.63;17.23;;;;;;;;;;5039314;28;20507;-61
2023/12/19 06:44:12;;;;;;;31.37;17.90;;;;;;;;;;5039013;28;20482;-61
2023/12/19 06:46:40;;;;;;;25.57;17.13;;;;;;;;;;5037558;28;20439;-61
2023/12/19 06:49:08;;;;;;;32.20;18.13;;;;;;;;;;5038836;28;20809;-61
2023/12/19 06:51:36;;;;;;;34.77;18.20;;;;;;;;;;5038955;28;20450;-61
2023/12/19 06:54:04;;;;;;;26.13;17.07;;;;;;;;;;5035471;28;20454;-61
2023/12/19 06:56:33;;;;;;;31.77;18.57;;;;;;;;;;5038791;28;20810;-61
2023/12/19 06:59:04;;;;;;;31.47;17.90;;;;;;;;;;5038534;28;20439;-61
2023/12/19 07:01:32;;;;;;;32.07;18.13;;;;;;;;;;5038947;28;20496;-61
2023/12/19 07:04:00;;;;;;;31.90;18.03;;;;;;;;;;5038479;28;20482;-62
2023/12/19 07:06:28;;;;;;;33.00;17.43;;;;;;;;;;5038484;28;20474;-61
2023/12/19 07:08:57;;;;;;;30.20;18.00;;;;;;;;;;5038464;28;20473;-61
2023/12/19 07:11:26;;;;;;;33.23;18.43;;;;;;;;;;5037986;28;20445;-60
2023/12/19 07:13:54;;;;;;;34.10;18.43;;;;;;;;;;5035041;28;20458;-63
2023/12/19 07:16:25;;;;;;;33.20;18.40;;;;;;;;;;5038262;28;20473;-61
2023/12/19 07:18:53;;;;;;;29.07;16.73;;;;;;;;;;5037570;28;20450;-63
2023/12/19 07:21:26;;;;;;;32.10;18.80;;;;;;;;;;5031622;28;20454;-61
2023/12/19 07:23:58;;;;;;;33.70;17.37;;;;;;;;;;5038162;28;20486;-61
2023/12/19 07:26:37;;;;;;;31.67;17.60;;;;;;;;;;5036770;28;20435;-61
2023/12/19 07:29:08;;;;;;;34.27;18.63;;;;;;;;;;5032931;28;20439;-61
2023/12/19 07:31:39;;;;;;;35.27;17.87;;;;;;;;;;5038429;28;20521;-61
2023/12/19 07:34:08;;;;;;;30.20;17.70;;;;;;;;;;5038179;28;20459;-60
2023/12/19 07:36:37;;;;;;;30.23;17.00;;;;;;;;;;5037995;28;20442;-61
2023/12/19 07:39:05;;;;;;;35.40;18.87;;;;;;;;;;5038395;28;20500;-61
2023/12/19 07:41:33;;;;;;;32.80;19.27;;;;;;;;;;5037971;28;20445;-61
2023/12/19 07:44:09;;;;;;;31.63;17.67;;;;;;;;;;5037691;28;20494;-60
2023/12/19 07:46:41;;;;;;;34.30;17.33;;;;;;;;;;5037107;28;20780;-60
2023/12/19 07:49:09;;;;;;;38.13;20.60;;;;;;;;;;5037946;28;20442;-61
2023/12/19 07:54:28;;;;;;;35.00;18.13;;;;;;;;;;5037618;28;20480;-59
2023/12/19 07:56:58;;;;;;;32.67;17.93;;;;;;;;;;5037802;28;20447;-58
2023/12/19 07:59:26;;;;;;;33.13;17.80;;;;;;;;;;5034895;28;20447;-58
2023/12/19 08:01:55;;;;;;;41.47;21.47;;;;;;;;;;5037699;28;20461;-60
2023/12/19 08:04:23;;;;;;;41.77;19.17;;;;;;;;;;5037008;28;20803;-60
2023/12/19 08:06:52;;;;;;;39.13;19.50;;;;;;;;;;5037419;28;20481;-60
2023/12/19 08:09:20;;;;;;;34.33;19.50;;;;;;;;;;5032657;28;20953;-60
2023/12/19 08:11:49;;;;;;;45.83;21.40;;;;;;;;;;5037536;28;20953;-58
2023/12/19 08:14:17;;;;;;;37.87;20.60;;;;;;;;;;5037139;28;20458;-58
2023/12/19 08:16:45;;;;;;;43.37;20.33;;;;;;;;;;5037405;28;20458;-58
2023/12/19 08:19:16;;;;;;;39.67;19.87;;;;;;;;;;5037177;28;20446;-58
2023/12/19 08:21:51;;;;;;;42.43;22.93;;;;;;;;;;5037467;28;20461;-58
2023/12/19 08:24:19;;;;;;;39.20;20.90;;;;;;;;;;5030511;28;20565;-58
2023/12/19 08:26:47;;;;;;;40.73;20.67;;;;;;;;;;5036795;28;20801;-59
2023/12/19 08:29:15;;;;;;;43.10;21.03;;;;;;;;;;5033642;28;20450;-59
2023/12/19 08:31:45;;;;;;;38.63;19.80;;;;;;;;;;5036816;28;20474;-58
2023/12/19 08:34:17;;;;;;;39.90;18.63;;;;;;;;;;5036310;28;20473;-59
2023/12/19 08:36:47;;;;;;;38.33;20.13;;;;;;;;;;5037092;28;20443;-59
2023/12/19 08:39:17;;;;;;;33.90;21.53;;;;;;;;;;5028597;28;20546;-59
2023/12/19 08:41:46;;;;;;;37.17;21.23;;;;;;;;;;5036920;28;20834;-59
2023/12/19 08:44:15;;;;;;;43.33;20.00;;;;;;;;;;5036634;28;20486;-59
2023/12/19 08:46:43;;;;;;;39.07;19.80;;;;;;;;;;5037075;28;20802;-59
2023/12/19 08:49:22;;;;;;;37.43;19.13;;;;;;;;;;5036359;28;20466;-60
2023/12/19 08:51:54;;;;;;;39.00;20.43;;;;;;;;;;5030295;28;20446;-60
2023/12/19 08:54:23;;;;;;;40.53;19.93;;;;;;;;;;5031818;28;20458;-61
2023/12/19 08:56:51;;;;;;;43.70;20.20;;;;;;;;;;5037320;28;20449;-60
2023/12/19 08:59:19;;;;;;;44.43;21.10;;;;;;;;;;5032440;28;20426;-61
2023/12/19 09:01:48;;;;;;;40.93;20.03;;;;;;;;;;5033176;28;20462;-61
2023/12/19 09:04:19;;;;;;;49.87;21.87;;;;;;;;;;5036695;28;20488;-62
2023/12/19 09:06:49;;;;;;;42.23;21.47;;;;;;;;;;5035583;28;20479;-62
2023/12/19 09:09:18;;;;;;;39.77;20.57;;;;;;;;;;5036221;28;20442;-61
2023/12/19 09:11:47;;;;;;;37.97;20.60;;;;;;;;;;5036347;28;20518;-61
2023/12/19 09:14:20;;;;;;;40.93;19.03;;;;;;;;;;5036712;28;20553;-61
2023/12/19 09:16:51;;;;;;;35.90;19.73;;;;;;;;;;5036404;28;20534;-61
2023/12/19 09:19:21;;;;;;;47.93;21.37;;;;;;;;;;5039087;28;20457;-62
2023/12/19 09:21:50;;;;;;;45.13;20.90;;;;;;;;;;5033477;28;20451;-61
2023/12/19 09:24:19;;;;;;;43.53;20.17;;;;;;;;;;5036337;28;20535;-61
2023/12/19 09:26:48;;;;;;;41.30;19.00;;;;;;;;;;5036834;28;20525;-61
2023/12/19 09:29:19;;;;;;;34.40;18.93;;;;;;;;;;5035419;28;20560;-61
2023/12/19 09:32:19;;;;;;;;;;;;;;;;;;;;;
2023/12/19 09:34:51;;;;;;;39.47;18.13;;;;;;;;;;5028409;28;20459;-62
2023/12/19 09:37:26;;;;;;;37.37;18.17;;;;;;;;;;5036437;28;20449;-62
2023/12/19 09:39:55;;;;;;;35.23;19.03;;;;;;;;;;5033368;28;20965;-61
2023/12/19 09:42:25;;;;;;;34.03;17.67;;;;;;;;;;5039820;28;20450;-61
2023/12/19 09:44:58;;;;;;;37.37;19.00;;;;;;;;;;5038764;28;20496;-62
2023/12/19 09:47:26;;;;;;;29.17;17.83;;;;;;;;;;5036326;28;20429;-61
2023/12/19 09:49:59;;;;;;;39.87;19.53;;;;;;;;;;5039343;28;20446;-61
2023/12/19 09:52:30;;;;;;;33.10;19.07;;;;;;;;;;5040087;28;20504;-61
2023/12/19 09:55:03;;;;;;;44.33;19.60;;;;;;;;;;5040172;28;20515;-61
2023/12/19 09:57:35;;;;;;;35.00;19.40;;;;;;;;;;5039949;28;20442;-62
2023/12/19 10:00:07;;;;;;;42.77;20.47;;;;;;;;;;5038080;28;20443;-61
2023/12/19 10:02:38;;;;;;;42.60;18.87;;;;;;;;;;5035194;28;20465;-61
2023/12/19 10:05:15;;;;;;;34.10;19.57;;;;;;;;;;5038799;28;20494;-61
2023/12/19 10:07:47;;;;;;;35.10;18.53;;;;;;;;;;5040154;28;20446;-61
2023/12/19 10:10:15;;;;;;;44.33;18.97;;;;;;;;;;5039357;28;20443;-61
2023/12/19 10:12:48;;;;;;;39.70;19.73;;;;;;;;;;5038208;28;20449;-61
2023/12/19 10:15:26;;;;;;;40.03;21.20;;;;;;;;;;5036173;28;20443;-61
2023/12/19 10:18:10;;;;;;;40.27;21.13;;;;;;;;;;5039505;28;20468;-61
2023/12/19 10:20:43;;;;;;;38.37;19.83;;;;;;;;;;5035883;28;20537;-61
2023/12/19 10:23:14;;;;;;;36.23;18.87;;;;;;;;;;5039016;28;20512;-61
2023/12/19 10:25:42;;;;;;;40.87;18.90;;;;;;;;;;5039145;28;20482;-61
2023/12/19 10:28:14;;;;;;;37.97;19.53;;;;;;;;;;5039576;28;20474;-61
2023/12/19 10:30:44;;;;;;;41.17;21.17;;;;;;;;;;5037933;28;20513;-61
2023/12/19 10:33:14;;;;;;;42.83;20.83;;;;;;;;;;5030597;28;20488;-61
2023/12/19 10:35:45;;;;;;;38.67;20.87;;;;;;;;;;5038470;28;20446;-61
2023/12/19 10:38:14;;;;;;;42.30;20.27;;;;;;;;;;5038316;28;20493;-61
2023/12/19 10:40:43;;;;;;;35.70;20.17;;;;;;;;;;5039173;28;20470;-61
2023/12/19 10:43:12;;;;;;;41.73;20.57;;;;;;;;;;5039249;28;20461;-61
2023/12/19 10:45:40;;;;;;;42.07;20.20;;;;;;;;;;5038997;28;20489;-61
2023/12/19 10:48:08;;;;;;;34.20;19.77;;;;;;;;;;5038880;28;20875;-61
2023/12/19 10:50:38;;;;;;;38.50;20.93;;;;;;;;;;5037620;28;20539;-61
2023/12/19 10:53:09;;;;;;;38.97;19.47;;;;;;;;;;5028222;28;20479;-61
2023/12/19 10:55:42;;;;;;;38.27;20.80;;;;;;;;;;5037377;28;20453;-62
2023/12/19 10:58:11;;;;;;;40.77;20.60;;;;;;;;;;5038992;28;20456;-61
2023/12/19 11:00:41;;;;;;;35.00;20.13;;;;;;;;;;5038330;28;20451;-62
2023/12/19 11:03:16;;;;;;;38.40;20.57;;;;;;;;;;5032024;28;20537;-61
2023/12/19 11:05:46;;;;;;;40.23;21.17;;;;;;;;;;5035617;28;20489;-61
2023/12/19 11:08:17;;;;;;;36.23;20.77;;;;;;;;;;5037378;28;20415;-59
2023/12/19 11:10:49;;;;;;;35.87;19.77;;;;;;;;;;5038326;28;20481;-62
2023/12/19 11:13:17;;;;;;;32.27;19.47;;;;;;;;;;5037158;28;20465;-62
2023/12/19 11:15:49;;;;;;;38.33;20.77;;;;;;;;;;5038351;28;20439;-61
2023/12/19 11:18:22;;;;;;;33.77;19.97;;;;;;;;;;5038581;28;20438;-62
2023/12/19 11:20:54;;;;;;;38.43;19.77;;;;;;;;;;5038291;28;20456;-61
2023/12/19 11:23:32;;;;;;;100.97;48.40;;;;;;;;;;5038122;28;20477;-62
2023/12/19 11:26:03;;;;;;;56.93;29.90;;;;;;;;;;5038091;28;20469;-61
2023/12/19 11:28:36;;;;;;;45.53;22.53;;;;;;;;;;5038093;28;20446;-61
2023/12/19 11:31:04;;;;;;;35.77;21.17;;;;;;;;;;5037958;28;20929;-62
2023/12/19 11:33:37;;;;;;;42.77;22.23;;;;;;;;;;5037919;28;20474;-63
2023/12/19 11:36:12;;;;;;;38.37;21.63;;;;;;;;;;5036806;28;20525;-62
2023/12/19 11:38:41;;;;;;;38.33;21.40;;;;;;;;;;5037088;28;20433;-63
2023/12/19 11:41:09;;;;;;;38.67;21.60;;;;;;;;;;5032684;28;20454;-62
2023/12/19 11:43:55;;;;;;;38.70;21.40;;;;;;;;;;5035856;28;20462;-62
2023/12/19 11:46:26;;;;;;;34.27;20.57;;;;;;;;;;5030075;28;21071;-62
2023/12/19 11:48:56;;;;;;;39.07;20.10;;;;;;;;;;5044070;28;20997;-62
2023/12/19 11:51:42;;;;;;;46.97;23.60;;;;;;;;;;5037389;28;20443;-62
2023/12/19 11:54:13;;;;;;;34.77;19.63;;;;;;;;;;5034557;28;20474;-62
2023/12/19 11:56:41;;;;;;;39.60;21.23;;;;;;;;;;5036142;28;20861;-62
2023/12/19 11:59:11;;;;;;;39.87;22.33;;;;;;;;;;5037409;28;20447;-62
2023/12/19 12:01:40;;;;;;;43.30;19.87;;;;;;;;;;5037305;28;20450;-62
2023/12/19 12:04:10;;;;;;;34.70;20.60;;;;;;;;;;5036371;28;20466;-62
2023/12/19 12:06:41;;;;;;;30.10;18.83;;;;;;;;;;5037021;28;21072;-61
2023/12/19 12:09:18;;;;;;;34.30;18.37;;;;;;;;;;5037648;28;20443;-61
2023/12/19 12:11:48;;;;;;;32.10;19.50;;;;;;;;;;5037463;28;20933;-62
2023/12/19 12:14:16;;;;;;;30.00;18.07;;;;;;;;;;5037230;28;20588;-62
2023/12/19 12:16:44;;;;;;;32.40;18.93;;;;;;;;;;5031708;28;20439;-62
2023/12/19 12:19:22;;;;;;;31.10;18.10;;;;;;;;;;5027017;28;20458;-62
2023/12/19 12:21:53;;;;;;;32.27;17.67;;;;;;;;;;5036337;28;20540;-61
2023/12/19 12:24:23;;;;;;;27.43;16.80;;;;;;;;;;5036717;28;20462;-61
2023/12/19 12:27:10;;;;;;;27.10;16.40;;;;;;;;;;5037100;28;20488;-61
2023/12/19 12:29:39;;;;;;;23.50;14.97;;;;;;;;;;5037110;28;20473;-61
2023/12/19 12:32:07;;;;;;;24.00;15.73;;;;;;;;;;5036807;28;20525;-62
2023/12/19 12:34:35;;;;;;;22.47;15.20;;;;;;;;;;5036341;28;20465;-62
2023/12/19 12:37:04;;;;;;;26.60;15.67;;;;;;;;;;5032967;28;20446;-62
2023/12/19 12:40:07;;;;;;;24.73;13.53;;;;;;;;;;5035849;28;20442;-61
2023/12/19 12:42:41;;;;;;;22.73;14.10;;;;;;;;;;5036675;28;20443;-60
2023/12/19 12:45:09;;;;;;;25.10;14.93;;;;;;;;;;5036627;28;20829;-62
2023/12/19 12:47:41;;;;;;;25.60;15.23;;;;;;;;;;5036611;28;20501;-61
2023/12/19 12:50:10;;;;;;;21.00;14.50;;;;;;;;;;5036004;28;20438;-60
2023/12/19 12:52:40;;;;;;;25.90;15.77;;;;;;;;;;5036205;28;20981;-60
2023/12/19 12:55:12;;;;;;;24.77;14.57;;;;;;;;;;5036288;28;20443;-60
2023/12/19 12:57:42;;;;;;;31.13;15.10;;;;;;;;;;5035723;28;20469;-60
2023/12/19 13:00:11;;;;;;;22.67;14.77;;;;;;;;;;5036525;28;20446;-60
2023/12/19 13:02:53;;;;;;;22.13;14.50;;;;;;;;;;5037194;28;20446;-60
2023/12/19 13:05:21;;;;;;;24.10;14.77;;;;;;;;;;5036691;28;20497;-60
2023/12/19 13:07:50;;;;;;;23.50;14.60;;;;;;;;;;5037006;28;20489;-59
2023/12/19 13:10:21;;;;;;;20.17;14.00;;;;;;;;;;5036588;28;20486;-60
2023/12/19 13:12:51;;;;;;;20.37;13.57;;;;;;;;;;5036921;28;20445;-59
2023/12/19 13:15:19;;;;;;;15.90;11.40;;;;;;;;;;5036973;28;20457;-59
2023/12/19 13:17:47;;;;;;;18.20;12.77;;;;;;;;;;5040619;28;20955;-60
2023/12/19 13:20:16;;;;;;;19.10;11.87;;;;;;;;;;5040674;28;20447;-59
2023/12/19 13:22:44;;;;;;;20.90;12.40;;;;;;;;;;5040356;28;20442;-59
2023/12/19 13:25:12;;;;;;;18.53;12.60;;;;;;;;;;5041103;28;20438;-59
2023/12/19 13:27:41;;;;;;;21.60;12.60;;;;;;;;;;5039850;28;20489;-59
2023/12/19 13:30:12;;;;;;;18.93;11.93;;;;;;;;;;5040412;28;20439;-61
2023/12/19 13:32:40;;;;;;;17.57;11.53;;;;;;;;;;5040571;28;20446;-61
2023/12/19 13:35:09;;;;;;;19.30;13.13;;;;;;;;;;5040387;28;20442;-61
2023/12/19 13:37:37;;;;;;;18.90;12.60;;;;;;;;;;5037330;28;20499;-57
2023/12/19 13:40:09;;;;;;;24.73;13.03;;;;;;;;;;5039902;28;20772;-58
2023/12/19 13:42:39;;;;;;;18.17;11.47;;;;;;;;;;5039993;28;20451;-58
2023/12/19 13:45:10;;;;;;;19.23;12.70;;;;;;;;;;5039713;28;20423;-58
2023/12/19 13:47:40;;;;;;;27.43;15.00;;;;;;;;;;5039282;28;20988;-58
2023/12/19 13:50:09;;;;;;;21.10;13.20;;;;;;;;;;5033122;28;20446;-58
2023/12/19 13:52:38;;;;;;;26.10;13.93;;;;;;;;;;5039985;28;20444;-58
2023/12/19 13:55:07;;;;;;;25.27;12.87;;;;;;;;;;5039920;28;20446;-58
2023/12/19 13:57:36;;;;;;;24.33;13.03;;;;;;;;;;5039546;28;20492;-59
2023/12/19 14:00:05;;;;;;;20.47;12.87;;;;;;;;;;5039711;28;20803;-60
2023/12/19 14:02:33;;;;;;;18.23;12.07;;;;;;;;;;5039937;28;20438;-60
2023/12/19 14:05:03;;;;;;;22.03;13.77;;;;;;;;;;5038858;28;20505;-59
2023/12/19 14:07:32;;;;;;;19.90;13.07;;;;;;;;;;5039701;28;20481;-61
2023/12/19 14:10:01;;;;;;;20.47;13.53;;;;;;;;;;5039250;28;20438;-61
2023/12/19 14:12:29;;;;;;;20.87;13.80;;;;;;;;;;5039647;28;20447;-58
2023/12/19 14:15:00;;;;;;;22.77;14.30;;;;;;;;;;5035966;28;20581;-58
2023/12/19 14:17:29;;;;;;;24.63;14.47;;;;;;;;;;5039371;28;20465;-58
2023/12/19 14:19:57;;;;;;;23.40;14.53;;;;;;;;;;5036741;28;20448;-58
2023/12/19 14:22:27;;;;;;;21.93;12.53;;;;;;;;;;5039088;28;20451;-59
2023/12/19 14:24:57;;;;;;;21.93;13.07;;;;;;;;;;5039293;28;20463;-59
2023/12/19 14:27:26;;;;;;;21.13;13.97;;;;;;;;;;5039251;28;20478;-58
2023/12/19 14:29:55;;;;;;;22.70;14.20;;;;;;;;;;5036949;28;20455;-59
2023/12/19 14:32:23;;;;;;;23.73;12.93;;;;;;;;;;5039243;28;20454;-59
2023/12/19 14:34:51;;;;;;;21.50;13.47;;;;;;;;;;5039272;28;20458;-59
2023/12/19 14:37:19;;;;;;;24.93;13.90;;;;;;;;;;5039304;28;20989;-59